Time;durP1;ratioP1;P1;durP2;ratioP2;P2;SDS_P1;SDS_P2;PMS_P1;PMS_P2;Temp;Humidity;BMP_temperature;BMP_pressure;BME280_temperature;BME280_humidity;BME280_pressure;Samples;Min_cycle;Max_cycle;Signal;HPM_P1;HPM_P2
2021/06/03 00:01:16;;;;;;;10.07;4.80;;;19.10;99.90;;;;;;5013891;28;20088;-78
2021/06/03 00:03:44;;;;;;;5.75;5.05;;;19.00;99.90;;;;;;5015399;28;20057;-77
2021/06/03 00:06:13;;;;;;;5.88;4.45;;;19.00;99.90;;;;;;4999345;28;20037;-77
2021/06/03 00:08:39;;;;;;;7.80;5.63;;;19.00;99.90;;;;;;4997997;28;20117;-78
2021/06/03 00:14:05;;;;;;;5.22;4.55;;;19.00;99.90;;;;;;4999787;28;20391;-77
2021/06/03 00:16:34;;;;;;;5.57;4.87;;;19.00;99.90;;;;;;4998916;28;20486;-78
2021/06/03 00:19:07;;;;;;;6.55;4.95;;;19.00;99.90;;;;;;4997947;28;20030;-78
2021/06/03 00:21:37;;;;;;;5.70;5.07;;;19.00;99.90;;;;;;4999549;28;20076;-78
2021/06/03 00:24:03;;;;;;;6.95;4.93;;;18.90;99.90;;;;;;4999494;28;20026;-78
2021/06/03 00:26:36;;;;;;;5.72;4.38;;;18.70;99.90;;;;;;4998700;28;20191;-77
2021/06/03 00:29:05;;;;;;;6.13;4.40;;;18.60;99.90;;;;;;4999919;28;20093;-78
2021/06/03 00:31:32;;;;;;;7.90;4.45;;;18.50;99.90;;;;;;4998820;28;20069;-79
2021/06/03 00:33:58;;;;;;;6.82;4.88;;;18.50;99.90;;;;;;4998806;28;20019;-79
2021/06/03 00:36:23;;;;;;;6.90;3.92;;;18.40;99.90;;;;;;4997727;28;20037;-78
2021/06/03 00:38:49;;;;;;;4.57;4.18;;;18.50;99.90;;;;;;4996536;28;20073;-80
2021/06/03 00:41:15;;;;;;;5.10;4.05;;;18.50;99.90;;;;;;4996395;28;20418;-77
2021/06/03 00:43:41;;;;;;;6.72;4.75;;;18.60;99.90;;;;;;4995945;28;20030;-78
2021/06/03 00:46:07;;;;;;;6.05;4.20;;;18.50;99.90;;;;;;4996722;28;20026;-77
2021/06/03 00:48:34;;;;;;;6.43;4.18;;;18.30;99.90;;;;;;5012282;28;20031;-78
2021/06/03 00:51:01;;;;;;;5.00;4.40;;;18.10;99.90;;;;;;4995898;28;20391;-79
2021/06/03 00:53:27;;;;;;;4.95;4.38;;;18.00;1.00;;;;;;4997062;28;20023;-79
2021/06/03 00:55:56;;;;;;;6.55;4.38;;;17.80;4.20;;;;;;4996374;28;20038;-78
2021/06/03 00:58:23;;;;;;;6.38;4.28;;;17.70;99.90;;;;;;4996591;28;20022;-78
2021/06/03 01:00:51;;;;;;;4.55;4.15;;;17.60;46.90;;;;;;4995709;28;20085;-78
2021/06/03 01:03:18;;;;;;;4.65;4.03;;;17.50;99.90;;;;;;4996412;28;20042;-79
2021/06/03 01:05:54;;;;;;;8.93;5.07;;;17.40;99.90;;;;;;4995964;28;20034;-78
2021/06/03 01:08:23;;;;;;;6.50;4.13;;;17.40;99.90;;;;;;4996734;28;20018;-77
2021/06/03 01:11:07;;;;;;;8.45;4.38;;;17.30;60.60;;;;;;4993915;28;20025;-79
2021/06/03 01:13:47;;;;;;;6.07;4.43;;;17.30;99.90;;;;;;4995018;28;20065;-78
2021/06/03 01:16:15;;;;;;;4.85;4.28;;;17.20;1.00;;;;;;4995863;28;20065;-78
2021/06/03 01:18:42;;;;;;;5.57;3.92;;;17.20;99.90;;;;;;4995323;28;20034;-79
2021/06/03 01:21:18;;;;;;;4.72;3.45;;;17.20;1.00;;;;;;4995588;28;20026;-78
2021/06/03 01:23:52;;;;;;;3.88;3.50;;;17.20;99.90;;;;;;4995139;28;20057;-77
2021/06/03 01:26:18;;;;;;;5.03;3.95;;;17.10;1.00;;;;;;4994409;28;20522;-78
2021/06/03 01:28:46;;;;;;;4.97;4.30;;;17.10;99.90;;;;;;4994871;28;20034;-77
2021/06/03 01:31:11;;;;;;;7.35;4.25;;;17.00;1.00;;;;;;5012955;28;20014;-79
2021/06/03 01:33:41;;;;;;;4.50;4.10;;;17.00;1.00;;;;;;5013576;28;20065;-76
2021/06/03 01:36:10;;;;;;;3.80;3.50;;;16.90;1.10;;;;;;5012330;28;20053;-78
2021/06/03 01:38:37;;;;;;;9.48;4.63;;;16.80;99.90;;;;;;5013836;28;20129;-78
2021/06/03 01:41:04;;;;;;;4.72;4.03;;;16.90;1.00;;;;;;5011910;28;20030;-77
2021/06/03 01:43:32;;;;;;;7.68;4.85;;;17.00;9.70;;;;;;5009439;28;20018;-77
2021/06/03 01:45:58;;;;;;;5.03;4.57;;;16.90;99.90;;;;;;5007494;28;20062;-78
2021/06/03 01:48:24;;;;;;;8.43;4.57;;;16.90;99.90;;;;;;4999763;28;20430;-78
2021/06/03 01:50:52;;;;;;;4.28;3.88;;;16.80;1.00;;;;;;4996506;28;20095;-78
2021/06/03 01:53:23;;;;;;;5.07;4.50;;;16.80;1.00;;;;;;4995919;28;20441;-78
2021/06/03 01:55:49;;;;;;;4.70;4.20;;;16.80;12.30;;;;;;4995413;28;20023;-79
2021/06/03 01:58:15;;;;;;;6.78;4.43;;;16.80;99.90;;;;;;4994857;28;20080;-78
2021/06/03 02:00:42;;;;;;;5.72;3.85;;;16.70;99.90;;;;;;4996018;28;20031;-80
2021/06/03 02:03:08;;;;;;;5.13;4.05;;;16.70;99.90;;;;;;4995243;28;20102;-78
2021/06/03 02:05:34;;;;;;;4.63;4.22;;;16.60;1.00;;;;;;5009977;28;20502;-79
2021/06/03 02:08:00;;;;;;;5.43;4.40;;;16.60;99.90;;;;;;5009879;28;20121;-78
2021/06/03 02:10:26;;;;;;;6.05;4.05;;;16.60;69.40;;;;;;4993908;28;20061;-78
2021/06/03 02:13:38;;;;;;;5.03;3.55;;;16.60;99.90;;;;;;5003823;28;20030;-80
2021/06/03 02:16:17;;;;;;;7.05;4.05;;;16.70;99.90;;;;;;5029581;28;20061;-77
2021/06/03 02:18:59;;;;;;;5.45;4.20;;;16.80;99.90;;;;;;5011752;28;20034;-77
2021/06/03 02:21:26;;;;;;;6.55;3.90;;;16.70;99.90;;;;;;5010010;28;20407;-77
2021/06/03 02:23:54;;;;;;;4.60;3.80;;;16.70;99.90;;;;;;5008966;28;20030;-78
2021/06/03 02:26:21;;;;;;;5.68;3.88;;;16.70;99.90;;;;;;5015541;28;20031;-77
2021/06/03 02:28:48;;;;;;;4.68;4.00;;;16.70;99.90;;;;;;5009355;28;20426;-77
2021/06/03 02:31:14;;;;;;;7.38;3.72;;;16.80;99.90;;;;;;4992307;28;20030;-79
2021/06/03 02:33:40;;;;;;;4.57;4.13;;;16.80;99.90;;;;;;4993422;28;20103;-78
2021/06/03 02:36:07;;;;;;;5.13;4.00;;;16.80;99.90;;;;;;5008964;28;20022;-77
2021/06/03 02:38:35;;;;;;;6.53;4.65;;;16.80;95.00;;;;;;4993935;28;20036;-78
2021/06/03 02:41:06;;;;;;;6.07;4.88;;;16.80;1.00;;;;;;4993457;28;20022;-78
2021/06/03 02:43:32;;;;;;;7.30;5.28;;;16.80;1.00;;;;;;4996431;28;20026;-78
2021/06/03 02:45:58;;;;;;;6.22;4.93;;;16.80;99.90;;;;;;4995467;28;20092;-78
2021/06/03 02:48:23;;;;;;;6.32;5.57;;;16.70;99.90;;;;;;4994473;28;20415;-78
2021/06/03 02:50:49;;;;;;;9.85;4.78;;;16.70;99.90;;;;;;5009186;28;20069;-79
2021/06/03 02:53:16;;;;;;;5.95;4.80;;;16.70;99.90;;;;;;4994630;28;20513;-77
2021/06/03 02:55:41;;;;;;;5.97;4.35;;;16.70;99.90;;;;;;4994382;28;20081;-79
2021/06/03 02:58:08;;;;;;;9.85;5.32;;;16.70;99.90;;;;;;4994227;28;20034;-78
2021/06/03 03:00:34;;;;;;;13.77;4.40;;;16.70;99.90;;;;;;4995799;28;20076;-79
2021/06/03 03:03:02;;;;;;;6.43;4.68;;;16.70;99.90;;;;;;4995899;28;20398;-79
2021/06/03 03:05:28;;;;;;;8.68;5.05;;;16.80;99.90;;;;;;4995022;28;20038;-78
2021/06/03 03:07:54;;;;;;;13.68;4.95;;;16.90;39.10;;;;;;4995558;28;20399;-78
2021/06/03 03:10:32;;;;;;;10.07;5.28;;;16.80;99.90;;;;;;4993340;28;20034;-78
2021/06/03 03:12:58;;;;;;;7.10;4.50;;;16.80;99.90;;;;;;4993661;28;20118;-78
2021/06/03 03:15:24;;;;;;;5.25;4.57;;;16.70;1.00;;;;;;4995092;28;20470;-80
2021/06/03 03:17:51;;;;;;;6.57;4.72;;;16.70;99.90;;;;;;4993927;28;20117;-79
2021/06/03 03:20:18;;;;;;;6.13;4.18;;;16.70;99.90;;;;;;4993867;28;20023;-79
2021/06/03 03:22:45;;;;;;;10.98;5.28;;;16.70;99.90;;;;;;4994286;28;20475;-78
2021/06/03 03:25:13;;;;;;;12.73;4.63;;;16.70;99.90;;;;;;5011390;28;20038;-80
2021/06/03 03:27:41;;;;;;;6.80;4.50;;;16.60;99.90;;;;;;4995697;28;20023;-80
2021/06/03 03:30:08;;;;;;;9.40;5.88;;;16.70;99.90;;;;;;4995990;28;20022;-78
2021/06/03 03:32:35;;;;;;;8.25;4.95;;;16.90;1.00;;;;;;4995465;28;20082;-78
2021/06/03 03:35:01;;;;;;;7.18;5.38;;;16.90;1.00;;;;;;4995370;28;20023;-78
2021/06/03 03:37:28;;;;;;;9.15;4.72;;;16.90;69.60;;;;;;4994093;28;20029;-79
2021/06/03 03:39:55;;;;;;;11.00;5.78;;;17.00;1.00;;;;;;4993356;28;20177;-80
2021/06/03 03:42:21;;;;;;;5.32;4.82;;;17.10;1.00;;;;;;4994698;28;20030;-78
2021/06/03 03:44:46;;;;;;;7.65;4.80;;;17.10;1.00;;;;;;4994188;28;20053;-78
2021/06/03 03:47:12;;;;;;;6.97;5.35;;;17.10;1.00;;;;;;4998386;28;20483;-78
2021/06/03 03:49:38;;;;;;;8.27;4.85;;;17.20;99.90;;;;;;4999072;28;20133;-78
2021/06/03 03:52:04;;;;;;;5.18;4.60;;;17.30;99.90;;;;;;4998204;28;20053;-78
2021/06/03 03:54:30;;;;;;;5.32;4.10;;;17.40;99.90;;;;;;4997531;28;20022;-78
2021/06/03 03:56:56;;;;;;;6.45;4.10;;;17.60;12.60;;;;;;4997822;28;20057;-79
2021/06/03 03:59:21;;;;;;;6.55;5.18;;;17.70;99.90;;;;;;4999138;28;20026;-78
2021/06/03 04:01:52;;;;;;;8.13;4.35;;;17.90;99.90;;;;;;4998248;28;20432;-78
2021/06/03 04:04:17;;;;;;;5.93;4.13;;;18.10;16.80;;;;;;4999236;28;20113;-78
2021/06/03 04:06:43;;;;;;;5.88;4.25;;;18.30;99.90;;;;;;4999123;28;20066;-78
2021/06/03 04:09:08;;;;;;;5.78;3.95;;;18.40;73.00;;;;;;4996964;28;20046;-78
2021/06/03 04:11:34;;;;;;;5.45;4.00;;;18.40;12.30;;;;;;4997060;28;20442;-78
2021/06/03 04:14:00;;;;;;;4.60;4.20;;;18.20;99.90;;;;;;4997888;28;20392;-79
2021/06/03 04:16:25;;;;;;;6.95;4.65;;;18.00;1.00;;;;;;5012657;28;20042;-78
2021/06/03 04:18:51;;;;;;;4.95;4.45;;;17.80;99.90;;;;;;4997092;28;20022;-78
2021/06/03 04:21:16;;;;;;;4.47;4.07;;;17.60;1.00;;;;;;4996252;28;20534;-78
2021/06/03 04:23:42;;;;;;;4.78;4.38;;;17.60;99.90;;;;;;5012731;28;20031;-79
2021/06/03 04:26:08;;;;;;;5.53;4.30;;;17.60;99.90;;;;;;4997252;28;20037;-78
2021/06/03 04:28:34;;;;;;;5.97;4.22;;;17.50;99.90;;;;;;4998930;28;20049;-78
2021/06/03 04:31:00;;;;;;;6.22;3.55;;;17.60;99.90;;;;;;4998529;28;20431;-79
2021/06/03 04:33:26;;;;;;;5.03;4.05;;;17.60;99.90;;;;;;4998667;28;20038;-79
2021/06/03 04:35:51;;;;;;;4.25;3.85;;;17.60;99.90;;;;;;4998396;28;20030;-79
2021/06/03 04:38:17;;;;;;;4.40;3.95;;;17.60;1.00;;;;;;4998539;28;20109;-79
2021/06/03 04:40:43;;;;;;;4.18;3.78;;;17.50;1.00;;;;;;4997758;28;20142;-78
2021/06/03 04:43:09;;;;;;;10.32;4.65;;;17.60;1.00;;;;;;4997364;28;20487;-80
2021/06/03 04:45:36;;;;;;;6.97;4.40;;;17.60;1.00;;;;;;4995511;28;20483;-79
2021/06/03 04:48:04;;;;;;;5.18;4.07;;;17.60;1.00;;;;;;4997222;28;20018;-79
2021/06/03 04:50:30;;;;;;;11.13;4.03;;;17.70;99.90;;;;;;4997166;28;20399;-78
2021/06/03 04:52:56;;;;;;;7.05;5.25;;;17.90;99.90;;;;;;4997688;28;20030;-78
2021/06/03 04:55:23;;;;;;;7.03;4.60;;;18.00;33.40;;;;;;4996904;28;20032;-78
2021/06/03 04:57:50;;;;;;;5.07;4.57;;;18.00;23.60;;;;;;4996642;28;20372;-80
2021/06/03 05:00:18;;;;;;;7.25;4.53;;;17.90;35.80;;;;;;4997375;28;20030;-78
2021/06/03 05:02:45;;;;;;;7.13;4.53;;;18.00;99.90;;;;;;4995672;28;20033;-77
2021/06/03 05:05:11;;;;;;;7.85;4.28;;;18.10;92.10;;;;;;4995203;28;20022;-77
2021/06/03 05:07:37;;;;;;;6.93;4.57;;;18.10;99.90;;;;;;4996275;28;20530;-78
2021/06/03 05:10:05;;;;;;;6.50;3.75;;;18.20;99.90;;;;;;4996541;28;20030;-78
2021/06/03 05:12:31;;;;;;;6.15;4.30;;;18.30;91.70;;;;;;4996546;28;20026;-77
2021/06/03 05:14:57;;;;;;;5.28;4.45;;;18.50;1.00;;;;;;4994780;28;20493;-79
2021/06/03 05:17:23;;;;;;;4.10;3.80;;;18.40;4.00;;;;;;4993727;28;20116;-79
2021/06/03 05:19:48;;;;;;;6.70;5.18;;;18.20;99.90;;;;;;4995804;28;20027;-78
2021/06/03 05:22:14;;;;;;;12.93;9.20;;;18.00;99.90;;;;;;4995328;28;20058;-78
2021/06/03 05:24:39;;;;;;;7.03;6.40;;;18.10;1.00;;;;;;4994577;28;20034;-79
2021/06/03 05:27:05;;;;;;;4.88;4.47;;;18.10;1.00;;;;;;4996960;28;20034;-77
2021/06/03 05:29:31;;;;;;;6.20;4.72;;;18.10;1.00;;;;;;4997295;28;20014;-77
2021/06/03 05:31:57;;;;;;;7.15;6.43;;;18.20;99.90;;;;;;4995243;28;20486;-81
2021/06/03 05:34:23;;;;;;;4.88;4.43;;;18.30;99.90;;;;;;5011865;28;20026;-78
2021/06/03 05:36:48;;;;;;;5.00;4.28;;;18.40;99.90;;;;;;4996624;28;20029;-79
2021/06/03 05:39:14;;;;;;;5.00;4.13;;;18.50;11.20;;;;;;5010683;28;20030;-79
2021/06/03 05:41:40;;;;;;;4.68;4.05;;;18.60;1.00;;;;;;4994519;28;20034;-78
2021/06/03 05:44:08;;;;;;;5.72;4.47;;;18.70;99.90;;;;;;4996504;28;20427;-78
2021/06/03 05:46:34;;;;;;;6.15;4.15;;;19.00;1.00;;;;;;4995530;28;20117;-79
2021/06/03 05:49:01;;;;;;;6.90;4.32;;;19.10;99.90;;;;;;4994634;28;20023;-79
2021/06/03 05:51:27;;;;;;;7.43;4.72;;;19.80;60.40;;;;;;5011896;28;20022;-78
2021/06/03 05:53:53;;;;;;;6.63;4.32;;;20.30;1.00;;;;;;4994700;28;20050;-78
2021/06/03 05:56:19;;;;;;;5.45;4.00;;;20.50;99.90;;;;;;4996015;28;20037;-78
2021/06/03 05:58:45;;;;;;;4.47;3.38;;;21.80;99.90;;;;;;4995950;28;20050;-78
2021/06/03 06:01:10;;;;;;;6.70;4.05;;;22.70;99.90;;;;;;4995259;28;20037;-78
2021/06/03 06:08:40;;;;;;;4.85;3.78;;;24.70;99.90;;;;;;4995774;28;20030;-78
2021/06/03 06:11:06;;;;;;;3.88;3.40;;;24.20;99.90;;;;;;4995513;28;20023;-78
2021/06/03 06:13:32;;;;;;;5.38;3.25;;;23.70;99.90;;;;;;5010123;28;20026;-77
2021/06/03 06:15:58;;;;;;;4.75;3.42;;;22.80;99.90;;;;;;4992789;28;20033;-78
2021/06/03 06:18:24;;;;;;;3.90;3.60;;;23.00;99.90;;;;;;4994830;28;20030;-78
2021/06/03 06:20:50;;;;;;;3.80;3.50;;;22.70;99.90;;;;;;4994506;28;20022;-79
2021/06/03 06:23:16;;;;;;;3.90;3.60;;;22.30;99.90;;;;;;4994729;28;20305;-77
2021/06/03 06:25:43;;;;;;;3.38;3.10;;;22.00;99.90;;;;;;4994009;28;20432;-78
2021/06/03 06:28:15;;;;;;;4.07;3.47;;;22.20;99.90;;;;;;4994455;28;20105;-78
2021/06/03 06:30:41;;;;;;;4.80;3.28;;;22.40;99.90;;;;;;4994872;28;20035;-78
2021/06/03 06:33:06;;;;;;;3.63;3.10;;;22.50;99.90;;;;;;4994284;28;20038;-78
2021/06/03 06:35:32;;;;;;;4.65;3.55;;;22.30;99.90;;;;;;5009838;28;20023;-78
2021/06/03 06:37:59;;;;;;;4.03;3.50;;;22.30;99.90;;;;;;4995383;28;20033;-79
2021/06/03 06:40:25;;;;;;;7.25;3.30;;;22.30;99.90;;;;;;4994535;28;20034;-79
2021/06/03 06:42:55;;;;;;;4.03;3.63;;;22.20;99.90;;;;;;4996208;28;20023;-78
2021/06/03 06:45:25;;;;;;;4.00;3.60;;;22.10;99.90;;;;;;5009936;28;20022;-78
2021/06/03 06:47:51;;;;;;;3.97;3.38;;;21.80;99.90;;;;;;4994100;28;20023;-79
2021/06/03 06:50:17;;;;;;;3.80;3.55;;;21.80;99.90;;;;;;4993273;28;20046;-78
2021/06/03 06:52:42;;;;;;;4.60;3.72;;;21.80;99.90;;;;;;4995603;28;20022;-78
2021/06/03 06:55:09;;;;;;;5.68;3.38;;;21.90;99.90;;;;;;4993358;28;20042;-78
2021/06/03 06:57:36;;;;;;;7.03;4.43;;;22.00;99.90;;;;;;4995273;28;20486;-79
2021/06/03 07:00:05;;;;;;;3.92;3.63;;;21.90;99.90;;;;;;4994897;28;20030;-78
2021/06/03 07:02:31;;;;;;;4.15;3.58;;;21.80;1.00;;;;;;5010333;28;20125;-79
2021/06/03 07:04:56;;;;;;;4.03;3.70;;;21.30;1.00;;;;;;4994985;28;20057;-79
2021/06/03 07:07:22;;;;;;;6.10;4.10;;;21.30;1.00;;;;;;4995369;28;20034;-78
2021/06/03 07:09:47;;;;;;;5.60;3.70;;;21.20;1.00;;;;;;4993984;28;20026;-77
2021/06/03 07:12:13;;;;;;;4.95;3.65;;;21.40;1.00;;;;;;5009819;28;20057;-78
2021/06/03 07:14:39;;;;;;;4.93;4.28;;;21.50;1.00;;;;;;4993071;28;20080;-80
2021/06/03 07:17:05;;;;;;;4.47;4.07;;;21.30;1.00;;;;;;5009007;28;20026;-78
2021/06/03 07:19:31;;;;;;;5.25;3.97;;;21.40;1.00;;;;;;4994014;28;20035;-77
2021/06/03 07:21:56;;;;;;;6.07;3.45;;;21.10;2.80;;;;;;5011430;28;20033;-78
2021/06/03 07:24:22;;;;;;;4.65;3.72;;;21.00;94.00;;;;;;4998526;28;20027;-79
2021/06/03 07:26:48;;;;;;;4.10;3.70;;;21.00;99.90;;;;;;4996435;28;20499;-79
2021/06/03 07:29:13;;;;;;;4.35;3.53;;;21.30;99.90;;;;;;4997395;28;20027;-79
2021/06/03 07:31:39;;;;;;;4.80;4.20;;;21.40;74.70;;;;;;4997534;28;20105;-78
2021/06/03 07:34:06;;;;;;;4.18;3.75;;;21.50;72.90;;;;;;4997677;28;20502;-79
2021/06/03 07:36:35;;;;;;;4.35;3.85;;;21.60;55.50;;;;;;4998240;28;20073;-79
2021/06/03 07:39:03;;;;;;;4.15;3.75;;;21.50;66.80;;;;;;4995895;28;20034;-79
2021/06/03 07:41:29;;;;;;;9.45;4.90;;;21.60;74.80;;;;;;4997832;28;20038;-78
2021/06/03 07:43:55;;;;;;;4.43;3.50;;;21.70;43.70;;;;;;4997487;28;20018;-78
2021/06/03 07:46:20;;;;;;;6.15;3.78;;;21.80;45.20;;;;;;4997197;28;20030;-77
2021/06/03 07:48:46;;;;;;;3.67;3.30;;;22.00;33.90;;;;;;4995756;28;20046;-78
2021/06/03 07:51:12;;;;;;;4.13;3.75;;;22.10;12.00;;;;;;4997156;28;20018;-79
2021/06/03 07:53:38;;;;;;;4.45;3.72;;;22.20;3.20;;;;;;5005327;28;20083;-78
2021/06/03 07:56:05;;;;;;;4.03;3.63;;;22.70;1.00;;;;;;5003452;28;20061;-78
2021/06/03 07:58:31;;;;;;;6.93;4.13;;;23.30;1.00;;;;;;5004159;28;20057;-77
2021/06/03 08:00:57;;;;;;;5.93;4.00;;;23.00;1.00;;;;;;5004666;28;20026;-77
2021/06/03 08:03:23;;;;;;;4.40;3.20;;;23.10;1.00;;;;;;5006381;28;20056;-78
2021/06/03 08:05:49;;;;;;;3.72;3.42;;;23.70;1.00;;;;;;5005449;28;20049;-77
2021/06/03 08:08:14;;;;;;;4.72;2.85;;;23.90;99.90;;;;;;5004454;28;20077;-77
2021/06/03 08:10:42;;;;;;;3.53;3.22;;;24.10;99.90;;;;;;5021779;28;20046;-76
2021/06/03 08:13:09;;;;;;;4.55;2.85;;;24.10;99.90;;;;;;5005830;28;20027;-78
2021/06/03 08:15:37;;;;;;;3.78;2.90;;;24.10;99.90;;;;;;5019995;28;20050;-77
2021/06/03 08:18:03;;;;;;;3.00;2.80;;;24.10;99.90;;;;;;4999949;28;20082;-77
2021/06/03 08:20:36;;;;;;;8.18;3.15;;;24.10;99.90;;;;;;4997767;28;20491;-79
2021/06/03 08:23:04;;;;;;;4.95;3.90;;;24.10;99.90;;;;;;5011914;28;20160;-80
2021/06/03 08:25:31;;;;;;;4.25;3.78;;;24.00;99.90;;;;;;4995458;28;20500;-77
2021/06/03 08:27:56;;;;;;;6.13;3.38;;;24.00;99.90;;;;;;4995583;28;20375;-78
2021/06/03 08:30:22;;;;;;;3.00;2.58;;;24.20;99.90;;;;;;4995838;28;20030;-79
2021/06/03 08:32:50;;;;;;;3.00;2.42;;;24.10;99.90;;;;;;4994475;28;20058;-78
2021/06/03 08:35:18;;;;;;;2.60;2.38;;;24.50;99.90;;;;;;4996747;28;20050;-78
2021/06/03 08:37:46;;;;;;;2.50;2.30;;;25.00;99.90;;;;;;5000702;28;20034;-79
2021/06/03 08:40:15;;;;;;;2.20;2.00;;;25.50;99.90;;;;;;4995337;28;20123;-79
2021/06/03 08:42:43;;;;;;;4.78;2.10;;;25.30;99.90;;;;;;4996375;28;20036;-78
2021/06/03 08:45:12;;;;;;;2.88;2.28;;;25.10;99.90;;;;;;4996096;28;20038;-80
2021/06/03 08:47:37;;;;;;;3.63;1.85;;;24.90;99.90;;;;;;4996366;28;20111;-79
2021/06/03 08:50:05;;;;;;;2.58;2.00;;;24.60;99.90;;;;;;4996253;28;20434;-80
2021/06/03 08:52:30;;;;;;;5.25;2.53;;;24.60;99.90;;;;;;4996624;28;20023;-78
2021/06/03 08:54:57;;;;;;;2.50;2.00;;;24.70;99.90;;;;;;4994387;28;20027;-78
2021/06/03 08:57:23;;;;;;;3.80;2.35;;;24.90;99.90;;;;;;4996135;28;20054;-79
2021/06/03 08:59:50;;;;;;;2.95;2.47;;;25.20;99.90;;;;;;4998008;28;20034;-80
2021/06/03 09:02:16;;;;;;;5.35;2.55;;;25.20;99.90;;;;;;4995188;28;20037;-79
2021/06/03 09:04:54;;;;;;;2.30;2.03;;;25.30;99.90;;;;;;4996098;28;20026;-78
2021/06/03 09:07:34;;;;;;;3.13;2.80;;;25.40;99.90;;;;;;4995715;28;20027;-79
2021/06/03 09:10:44;;;;;;;2.58;2.33;;;25.50;99.90;;;;;;4996419;28;20526;-80
2021/06/03 09:13:16;;;;;;;3.95;2.40;;;25.60;99.90;;;;;;4995878;28;20106;-79
2021/06/03 09:15:50;;;;;;;2.47;1.98;;;25.60;99.90;;;;;;4995564;28;20026;-78
2021/06/03 09:18:17;;;;;;;2.78;2.00;;;25.80;99.90;;;;;;4995213;28;20483;-79
2021/06/03 09:20:46;;;;;;;2.40;2.20;;;26.00;99.90;;;;;;4994262;28;20121;-78
2021/06/03 09:23:26;;;;;;;2.55;2.35;;;26.30;99.90;;;;;;4995302;28;20019;-79
2021/06/03 09:25:51;;;;;;;2.38;2.13;;;26.30;99.90;;;;;;4995543;28;20037;-79
2021/06/03 09:28:47;;;;;;;4.22;2.60;;;26.20;99.90;;;;;;4994736;28;20023;-78
2021/06/03 09:31:41;;;;;;;2.42;2.10;;;26.00;99.90;;;;;;4995116;28;20039;-79
2021/06/03 09:34:13;;;;;;;2.30;2.10;;;26.10;99.90;;;;;;4996803;28;20418;-79
2021/06/03 09:36:50;;;;;;;3.05;2.05;;;26.00;99.90;;;;;;4996397;28;20026;-79
2021/06/03 09:39:36;;;;;;;3.38;1.88;;;25.80;99.90;;;;;;4997567;28;20030;-79
2021/06/03 09:42:06;;;;;;;7.80;2.85;;;25.70;99.90;;;;;;4994201;28;20022;-79
2021/06/03 09:44:40;;;;;;;2.10;1.80;;;25.50;99.90;;;;;;4994709;28;20491;-79
2021/06/03 09:47:11;;;;;;;3.40;2.53;;;25.30;99.90;;;;;;4994025;28;20033;-80
2021/06/03 09:50:04;;;;;;;4.38;2.47;;;25.40;99.90;;;;;;4996417;28;20023;-78
2021/06/03 09:52:34;;;;;;;4.45;2.20;;;25.40;99.90;;;;;;4994872;28;20499;-79
2021/06/03 09:55:05;;;;;;;1.85;1.73;;;25.50;99.90;;;;;;4995087;28;20022;-79
2021/06/03 09:57:43;;;;;;;1.80;1.70;;;25.80;99.90;;;;;;4995590;28;20527;-78
2021/06/03 10:00:21;;;;;;;1.88;1.77;;;25.70;99.90;;;;;;4995262;28;20034;-79
2021/06/03 10:02:52;;;;;;;2.00;1.80;;;26.10;99.90;;;;;;4994601;28;20061;-78
2021/06/03 10:05:21;;;;;;;2.50;1.70;;;26.40;99.90;;;;;;4995408;28;20030;-79
2021/06/03 10:08:00;;;;;;;2.10;1.52;;;26.70;99.90;;;;;;4993147;28;20022;-78
2021/06/03 10:10:27;;;;;;;3.60;2.17;;;26.80;99.90;;;;;;4993947;28;20472;-78
2021/06/03 10:12:53;;;;;;;2.13;1.90;;;26.50;99.90;;;;;;4993781;28;20126;-78
2021/06/03 10:15:19;;;;;;;1.67;1.50;;;27.10;99.90;;;;;;4994957;28;20099;-78
2021/06/03 10:17:52;;;;;;;1.52;1.30;;;27.10;99.90;;;;;;4995201;28;20034;-77
2021/06/03 10:20:37;;;;;;;3.47;1.95;;;27.10;99.90;;;;;;5009877;28;20077;-80
2021/06/03 10:23:04;;;;;;;3.45;1.65;;;27.40;99.90;;;;;;4992744;28;20030;-79
2021/06/03 10:25:31;;;;;;;2.10;1.02;;;26.80;99.90;;;;;;4993718;28;20550;-79
2021/06/03 10:28:08;;;;;;;2.55;2.10;;;27.00;99.90;;;;;;4994999;28;20586;-78
2021/06/03 10:30:40;;;;;;;2.25;1.73;;;26.70;99.90;;;;;;4994712;28;20054;-78
2021/06/03 10:33:12;;;;;;;2.95;1.63;;;26.90;99.90;;;;;;4992952;28;20023;-79
2021/06/03 10:35:40;;;;;;;2.05;1.75;;;27.70;99.90;;;;;;4994592;28;20105;-78
2021/06/03 10:38:32;;;;;;;3.67;1.90;;;27.40;99.90;;;;;;4995300;28;20026;-79
2021/06/03 10:41:02;;;;;;;2.95;1.50;;;26.70;99.90;;;;;;4994176;28;20102;-79
2021/06/03 10:43:28;;;;;;;2.38;1.70;;;26.30;99.90;;;;;;4996141;28;20023;-79
2021/06/03 10:45:54;;;;;;;2.45;1.85;;;26.60;99.90;;;;;;4993549;28;20077;-80
2021/06/03 10:48:19;;;;;;;1.95;1.70;;;26.10;99.90;;;;;;4995079;28;20077;-79
2021/06/03 10:50:52;;;;;;;2.42;1.48;;;26.60;99.90;;;;;;4994892;28;20455;-78
2021/06/03 10:53:21;;;;;;;2.45;1.50;;;27.30;99.90;;;;;;4995390;28;20085;-79
2021/06/03 10:55:49;;;;;;;4.25;1.98;;;27.50;99.30;;;;;;4998235;28;20301;-79
2021/06/03 10:58:16;;;;;;;3.75;1.83;;;27.80;92.80;;;;;;5001345;28;20022;-78
2021/06/03 11:01:01;;;;;;;1.73;1.30;;;28.30;88.40;;;;;;5016871;28;20034;-79
2021/06/03 11:03:42;;;;;;;2.05;1.30;;;27.80;90.10;;;;;;5001539;28;20015;-79
2021/06/03 11:06:10;;;;;;;1.92;1.20;;;27.60;90.80;;;;;;5001967;28;20057;-78
2021/06/03 11:08:43;;;;;;;1.20;0.93;;;27.70;79.00;;;;;;5001386;28;20026;-78
2021/06/03 11:11:09;;;;;;;2.03;0.80;;;28.00;68.20;;;;;;5001971;28;20088;-78
2021/06/03 11:13:36;;;;;;;1.52;1.00;;;28.40;58.30;;;;;;5000919;28;20022;-78
2021/06/03 11:16:06;;;;;;;3.65;1.08;;;28.70;52.80;;;;;;5015874;28;20194;-79
2021/06/03 11:18:42;;;;;;;1.70;0.85;;;28.60;44.00;;;;;;5001100;28;20157;-79
2021/06/03 11:21:07;;;;;;;1.38;0.98;;;28.90;42.60;;;;;;5002325;28;20034;-78
2021/06/03 11:23:41;;;;;;;1.23;0.88;;;28.90;38.00;;;;;;5000849;28;20084;-79
2021/06/03 11:26:30;;;;;;;1.42;1.02;;;28.90;35.10;;;;;;5001330;28;20036;-78
2021/06/03 11:29:08;;;;;;;1.55;1.30;;;29.20;35.20;;;;;;5001578;28;20022;-79
2021/06/03 11:31:38;;;;;;;2.63;1.67;;;28.10;51.50;;;;;;4999863;28;20038;-80
2021/06/03 11:34:06;;;;;;;1.27;1.17;;;26.80;63.40;;;;;;5016942;28;20192;-79
2021/06/03 11:36:33;;;;;;;4.07;1.67;;;26.10;80.50;;;;;;4999281;28;20162;-79
2021/06/03 11:38:59;;;;;;;4.80;1.50;;;25.70;90.50;;;;;;5000442;28;20049;-79
2021/06/03 11:41:36;;;;;;;1.88;1.40;;;25.40;97.30;;;;;;4999071;28;20487;-79
2021/06/03 11:44:07;;;;;;;4.25;1.40;;;25.30;98.70;;;;;;5000305;28;20029;-79
2021/06/03 11:46:51;;;;;;;;;;;25.40;99.20;;;;;;4998970;28;20030;-79
2021/06/03 11:49:32;;;;;;;3.65;2.65;;;25.70;98.10;;;;;;4998928;28;19975;-79
2021/06/03 11:52:10;;;;;;;5.47;1.98;;;25.90;96.00;;;;;;5000040;28;20101;-79
2021/06/03 11:54:57;;;;;;;5.03;2.40;;;25.90;95.20;;;;;;4999355;28;20027;-78
2021/06/03 11:57:28;;;;;;;1.98;1.17;;;25.90;99.70;;;;;;4999996;28;20558;-80
2021/06/03 12:00:06;;;;;;;4.15;3.22;;;25.50;98.90;;;;;;5000057;28;20079;-78
2021/06/03 12:02:37;;;;;;;3.95;3.20;;;25.60;99.90;;;;;;4999964;28;20069;-78
2021/06/03 12:05:09;;;;;;;;;;;25.60;99.90;;;;;;4997962;28;20058;-78
2021/06/03 12:07:55;;;;;;;3.50;2.55;;;25.90;99.90;;;;;;4997150;28;19943;-79
2021/06/03 12:10:29;;;;;;;4.32;3.20;;;26.00;99.90;;;;;;4996404;28;20495;-78
2021/06/03 12:12:55;;;;;;;2.58;2.08;;;25.90;99.90;;;;;;4995854;28;20074;-79
2021/06/03 12:15:24;;;;;;;2.33;2.13;;;25.40;99.90;;;;;;5011292;28;20031;-79
2021/06/03 12:17:54;;;;;;;3.42;3.05;;;25.20;99.90;;;;;;4996596;28;20106;-79
2021/06/03 12:20:20;;;;;;;3.10;2.17;;;24.70;99.90;;;;;;4996128;28;20035;-80
2021/06/03 12:22:47;;;;;;;5.00;2.10;;;24.70;99.90;;;;;;5011700;28;20081;-79
2021/06/03 12:25:13;;;;;;;3.83;1.90;;;24.60;99.90;;;;;;4995125;28;20114;-79
2021/06/03 12:27:42;;;;;;;3.47;1.90;;;24.70;99.90;;;;;;4996393;28;20034;-79
2021/06/03 12:30:22;;;;;;;3.47;2.45;;;24.70;99.90;;;;;;4995242;28;20034;-78
2021/06/03 12:33:10;;;;;;;2.97;2.00;;;24.90;99.90;;;;;;5011915;28;20498;-78
2021/06/03 12:35:42;;;;;;;2.67;2.08;;;24.80;99.90;;;;;;4995965;28;20023;-80
2021/06/03 12:38:09;;;;;;;3.05;1.90;;;24.70;99.90;;;;;;4994684;28;20030;-80
2021/06/03 12:40:36;;;;;;;3.22;2.00;;;24.80;99.90;;;;;;4994930;28;20022;-79
2021/06/03 12:43:06;;;;;;;3.95;2.22;;;25.00;99.90;;;;;;4996532;28;20031;-79
2021/06/03 12:45:35;;;;;;;9.52;4.13;;;25.10;99.90;;;;;;4995684;28;20019;-79
2021/06/03 12:48:01;;;;;;;4.25;3.13;;;24.50;87.00;;;;;;4995682;28;20023;-79
2021/06/03 12:50:27;;;;;;;4.05;2.67;;;24.00;1.00;;;;;;4996068;28;20099;-79
2021/06/03 12:52:53;;;;;;;2.95;2.30;;;23.50;99.90;;;;;;4996278;28;20026;-79
2021/06/03 12:55:22;;;;;;;2.75;2.42;;;23.40;99.90;;;;;;4997189;28;20019;-80
2021/06/03 12:57:48;;;;;;;6.15;3.58;;;23.40;59.30;;;;;;4996461;28;20018;-80
2021/06/03 13:00:19;;;;;;;4.50;2.33;;;23.60;1.00;;;;;;4999201;28;20046;-80
2021/06/03 13:02:48;;;;;;;5.05;2.08;;;23.60;99.90;;;;;;4997078;28;20036;-79
2021/06/03 13:05:20;;;;;;;6.72;2.50;;;24.00;99.90;;;;;;5011977;28;20053;-79